Pitesti, Romania
Current Conditions -  °F | °C
As of 12:00 PM on Saturday 25 Oct 2014 (Local Time) from LRCV Reporting Station
Light Rain Light Rain  
Wind Chill: 34°   Ceiling: 600
Heat Index: 37°   Visibility: 2.5mi
Dew Point: 36°   Wind: 5mph
Humidity: 93%   Direction: 190°S
Pressure: 30.27"   Gusts: NA
Location:  44.86°N, 24.87°E
Report Text: LRCV 250900Z 19004KT 150V230 4000 -RA BR FEW001 BKN006 BKN01003/02 Q1025 R09/29//95
Loading
Personal Weather Stations






























Interactive Weather Map
Tropical Storm Tracking
New forecast layout! Learn more

10-Day Weather Forecast

Advertisements
Track Severe Weather on mobile